createdAt,value
2022-08-14T12:26:12.128Z,32.20
2022-08-14T12:41:38.251Z,34.20
2022-08-14T12:56:45.845Z,36.00
2022-08-14T13:26:58.480Z,38.00
2022-08-14T13:42:11.053Z,38.10
2022-08-14T13:57:21.938Z,38.40
2022-08-14T14:12:41.361Z,39.40
2022-08-14T14:27:49.395Z,40.50
2022-08-14T14:43:00.451Z,41.30
2022-08-14T14:58:08.053Z,41.30
2022-08-14T15:13:13.972Z,41.60
2022-08-14T15:28:40.492Z,41.90
2022-08-14T15:43:46.216Z,42.10
2022-08-14T15:58:51.893Z,41.80
2022-08-14T16:13:57.807Z,40.80
2022-08-14T16:29:09.207Z,39.90
2022-08-14T16:44:31.722Z,40.10
2022-08-14T16:59:52.245Z,40.50
2022-08-14T17:15:09.839Z,40.80
2022-08-14T17:30:32.285Z,41.10
2022-08-14T17:45:46.896Z,40.90
2022-08-14T18:01:15.813Z,39.90
2022-08-14T18:16:30.385Z,38.70
2022-08-14T18:31:43.438Z,36.90
2022-08-14T18:47:25.548Z,34.90
2022-08-14T19:02:44.450Z,33.70
2022-08-14T19:18:13.932Z,32.90
2022-08-14T19:33:51.889Z,32.50
2022-08-14T19:48:59.448Z,31.90
2022-08-14T20:04:44.790Z,31.60
2022-08-14T20:19:37.849Z,31.10
2022-08-14T20:34:51.534Z,30.80
2022-08-14T20:50:21.295Z,30.30
2022-08-14T21:05:33.913Z,30.10
2022-08-14T21:20:40.557Z,29.80
2022-08-14T21:35:46.618Z,29.40
2022-08-14T21:51:01.655Z,29.00
2022-08-14T22:06:19.966Z,28.60
2022-08-14T22:21:26.024Z,28.30
2022-08-14T22:36:50.084Z,28.00
2022-08-14T22:51:57.788Z,27.80
2022-08-14T23:07:21.863Z,27.40
2022-08-14T23:22:28.660Z,27.20
2022-08-14T23:37:35.174Z,27.00
2022-08-14T23:52:50.707Z,26.90
